Time;durP1;ratioP1;P1;durP2;ratioP2;P2;SDS_P1;SDS_P2;PMS_P1;PMS_P2;Temp;Humidity;BMP_temperature;BMP_pressure;BME280_temperature;BME280_humidity;BME280_pressure;Samples;Min_cycle;Max_cycle;Signal;HPM_P1;HPM_P2
2022/01/08 07:22:49;;;;;;;0.90;0.90;;;2.20;99.90;;;;;;4730560;29;20496;-94
2022/01/08 07:25:15;;;;;;;2.10;1.00;;;2.10;99.90;;;;;;4734641;30;20877;-93
2022/01/08 07:27:54;;;;;;;1.60;0.87;;;2.10;99.90;;;;;;4729947;30;20573;-95
2022/01/08 07:31:12;;;;;;;1.70;0.80;;;2.20;99.90;;;;;;4736286;30;20976;-96
2022/01/08 07:33:38;;;;;;;1.00;1.00;;;2.10;99.90;;;;;;4720365;30;20453;-93
2022/01/08 07:36:06;;;;;;;1.10;1.10;;;2.00;99.90;;;;;;4714487;30;22141;-92
2022/01/08 07:38:37;;;;;;;1.20;1.20;;;2.00;99.90;;;;;;4731581;30;20317;-92
2022/01/08 07:41:05;;;;;;;1.13;1.07;;;1.90;99.90;;;;;;4714897;30;20608;-93
2022/01/08 07:43:33;;;;;;;1.30;1.20;;;1.90;99.90;;;;;;4729806;30;20518;-93
2022/01/08 07:45:59;;;;;;;1.90;1.50;;;1.90;99.90;;;;;;4720741;30;20524;-95
2022/01/08 07:48:59;;;;;;;4.20;1.40;;;2.00;99.90;;;;;;4748393;30;20594;-96
2022/01/08 07:51:25;;;;;;;1.57;1.40;;;1.90;99.90;;;;;;4761378;30;20195;-91
2022/01/08 07:59:01;;;;;;;2.00;1.57;;;1.90;99.90;;;;;;4809856;24;20518;-94
2022/01/08 08:01:32;;;;;;;2.97;1.73;;;1.90;99.90;;;;;;4755563;29;20471;-94
2022/01/08 08:04:10;;;;;;;1.40;1.30;;;1.90;99.90;;;;;;4763233;29;20513;-96
2022/01/08 08:10:04;;;;;;;2.00;1.90;;;2.00;99.90;;;;;;4784129;29;20498;-96
2022/01/08 08:12:32;;;;;;;3.10;1.93;;;2.00;99.90;;;;;;4771260;29;20468;-95
2022/01/08 08:15:05;;;;;;;2.40;2.00;;;2.00;99.90;;;;;;4779211;29;20466;-96
2022/01/08 08:20:24;;;;;;;2.77;2.13;;;2.00;99.90;;;;;;4770604;29;20553;-96
2022/01/08 08:22:53;;;;;;;3.20;2.20;;;2.10;99.90;;;;;;4737664;29;20470;-96
2022/01/08 08:25:20;;;;;;;7.17;2.30;;;2.00;99.90;;;;;;4751322;29;20475;-95
2022/01/08 08:27:46;;;;;;;3.10;2.70;;;2.10;99.90;;;;;;4749248;29;20555;-94
2022/01/08 08:30:12;;;;;;;2.50;2.30;;;2.20;99.90;;;;;;4754500;29;20802;-96
2022/01/08 08:32:53;;;;;;;6.20;2.80;;;2.20;99.90;;;;;;4739711;29;20488;-95
2022/01/08 08:35:20;;;;;;;2.47;2.27;;;2.20;99.90;;;;;;4750969;29;21060;-94
2022/01/08 08:37:46;;;;;;;8.10;3.63;;;2.30;99.90;;;;;;4739750;29;21412;-95
2022/01/08 08:40:14;;;;;;;3.63;3.33;;;2.30;99.90;;;;;;4780981;29;20445;-96
2022/01/08 08:45:42;;;;;;;5.23;4.63;;;2.30;99.90;;;;;;4771605;29;20468;-95
2022/01/08 08:48:16;;;;;;;3.30;3.00;;;2.40;99.90;;;;;;4756084;29;20761;-96
2022/01/08 08:50:52;;;;;;;3.70;2.40;;;2.50;99.90;;;;;;4754474;29;20477;-94
2022/01/08 08:53:42;;;;;;;2.50;2.30;;;2.50;99.90;;;;;;4753862;29;21529;-96
2022/01/08 08:56:13;;;;;;;2.40;2.20;;;2.50;99.90;;;;;;4756918;29;21875;-96
2022/01/08 08:58:45;;;;;;;2.13;1.97;;;2.50;99.90;;;;;;4765756;29;20461;-96
2022/01/08 09:01:23;;;;;;;2.10;1.90;;;2.50;99.90;;;;;;4752849;29;20611;-95
2022/01/08 09:03:48;;;;;;;1.43;1.33;;;2.50;99.90;;;;;;4753760;29;20817;-95
2022/01/08 09:06:14;;;;;;;2.50;2.00;;;2.50;99.90;;;;;;4751219;29;20547;-94
2022/01/08 09:08:40;;;;;;;1.90;1.73;;;2.40;99.90;;;;;;4745500;29;20231;-95
2022/01/08 09:11:05;;;;;;;1.90;1.80;;;2.40;99.90;;;;;;4754332;29;20517;-94
2022/01/08 09:13:31;;;;;;;3.43;2.60;;;2.50;99.90;;;;;;4753472;29;20211;-93
2022/01/08 09:16:05;;;;;;;1.80;1.70;;;2.40;99.90;;;;;;4749138;29;20225;-96
2022/01/08 09:18:41;;;;;;;2.33;2.10;;;2.30;99.90;;;;;;4750798;29;20284;-96
2022/01/08 09:21:07;;;;;;;5.83;3.20;;;2.30;99.90;;;;;;4753188;29;21000;-95
2022/01/08 09:23:51;;;;;;;4.97;3.37;;;2.30;99.90;;;;;;4751666;29;20511;-95
2022/01/08 09:26:17;;;;;;;3.33;3.13;;;2.30;99.90;;;;;;4719551;29;21189;-95
2022/01/08 09:28:43;;;;;;;7.20;3.50;;;2.40;99.90;;;;;;4749991;29;20492;-95
2022/01/08 09:33:51;;;;;;;6.40;2.33;;;2.50;99.90;;;;;;4766143;29;20697;-93
2022/01/08 09:36:17;;;;;;;4.67;2.70;;;2.50;99.90;;;;;;4751933;29;20480;-92
2022/01/08 09:38:46;;;;;;;2.53;2.33;;;2.50;99.90;;;;;;4747626;29;20479;-92
2022/01/08 09:41:17;;;;;;;2.17;1.97;;;2.60;99.90;;;;;;4750610;29;20460;-91
2022/01/08 09:47:01;;;;;;;4.73;3.90;;;2.90;99.90;;;;;;4769233;29;20665;-94
2022/01/08 09:49:32;;;;;;;4.00;2.70;;;3.10;99.90;;;;;;4751826;29;20468;-96
2022/01/08 09:52:05;;;;;;;8.13;4.93;;;3.10;99.90;;;;;;4745899;29;20847;-93
2022/01/08 09:57:09;;;;;;;8.03;5.33;;;3.30;99.90;;;;;;4768005;29;20484;-92
2022/01/08 09:59:37;;;;;;;5.60;4.57;;;3.40;99.90;;;;;;4756188;29;21546;-94
2022/01/08 10:02:04;;;;;;;4.53;3.53;;;3.50;99.90;;;;;;4756753;29;20208;-94
2022/01/08 10:04:36;;;;;;;2.40;2.20;;;3.50;99.90;;;;;;4763434;29;20464;-92
2022/01/08 10:07:31;;;;;;;5.63;3.07;;;3.40;99.90;;;;;;4766489;29;20474;-94
2022/01/08 10:10:00;;;;;;;3.00;2.40;;;3.40;99.90;;;;;;4768789;29;20810;-94
2022/01/08 10:12:43;;;;;;;2.63;2.40;;;3.20;99.90;;;;;;4767321;29;20560;-94
2022/01/08 10:17:56;;;;;;;1.90;1.50;;;3.20;99.90;;;;;;4765222;29;20511;-92
2022/01/08 10:20:32;;;;;;;2.17;2.00;;;3.10;99.90;;;;;;4761249;29;20535;-92
2022/01/08 10:23:12;;;;;;;2.50;2.23;;;3.10;99.90;;;;;;4748536;29;20461;-93
2022/01/08 10:25:41;;;;;;;2.30;2.10;;;3.20;99.90;;;;;;4749717;29;20469;-94
2022/01/08 10:28:07;;;;;;;3.20;2.37;;;3.30;99.90;;;;;;4747841;29;20902;-94
2022/01/08 10:30:33;;;;;;;2.67;1.80;;;3.20;99.90;;;;;;4750536;29;20450;-94
2022/01/08 10:33:00;;;;;;;1.07;0.93;;;3.20;99.90;;;;;;4769620;29;20842;-93
2022/01/08 10:35:47;;;;;;;1.90;1.50;;;3.10;99.90;;;;;;4751667;29;20212;-95
2022/01/08 10:38:16;;;;;;;2.20;2.00;;;3.10;99.90;;;;;;4749525;29;20476;-91
2022/01/08 10:40:47;;;;;;;2.13;1.60;;;3.20;99.90;;;;;;4747429;29;20627;-94
2022/01/08 10:43:27;;;;;;;5.40;2.03;;;3.20;99.90;;;;;;4747771;29;20468;-90
2022/01/08 10:45:56;;;;;;;3.43;2.00;;;3.20;99.90;;;;;;4750878;29;20464;-91
2022/01/08 10:48:31;;;;;;;1.90;1.80;;;3.10;99.90;;;;;;4735961;29;20501;-92
2022/01/08 10:51:13;;;;;;;4.80;2.03;;;3.10;99.90;;;;;;4746835;29;20530;-95
2022/01/08 11:04:30;;;;;;;3.20;2.20;;;3.20;99.90;;;;;;3499673;24;20535;-96
2022/01/08 11:07:09;;;;;;;3.67;3.20;;;3.40;99.90;;;;;;4783080;29;21314;-96
2022/01/08 22:57:38;;;;;;;1.83;1.50;;;4.50;99.90;;;;;;4752911;29;20499;-86
2022/01/08 23:00:18;;;;;;;1.50;0.90;;;4.60;99.90;;;;;;4751981;29;20492;-85
2022/01/08 23:02:52;;;;;;;1.57;1.00;;;4.60;99.90;;;;;;4751164;29;20510;-85
2022/01/08 23:05:20;;;;;;;0.70;0.70;;;4.70;99.90;;;;;;4754273;29;20559;-85
2022/01/08 23:07:47;;;;;;;1.20;1.10;;;4.70;99.90;;;;;;4752974;29;20545;-85
2022/01/08 23:10:20;;;;;;;1.13;1.13;;;4.70;99.90;;;;;;4741469;29;20475;-85
2022/01/08 23:12:46;;;;;;;1.73;1.17;;;4.70;99.90;;;;;;4754535;29;20452;-85
2022/01/08 23:15:15;;;;;;;0.73;0.73;;;4.70;99.90;;;;;;4761372;29;20452;-85
2022/01/08 23:17:44;;;;;;;1.33;1.23;;;4.60;99.90;;;;;;4770490;29;20457;-84
2022/01/08 23:20:14;;;;;;;1.90;1.00;;;4.70;99.90;;;;;;4753275;29;20514;-85
2022/01/08 23:22:44;;;;;;;1.20;1.10;;;4.60;99.90;;;;;;4770851;29;20988;-85
2022/01/08 23:25:11;;;;;;;0.90;0.90;;;4.60;99.90;;;;;;4770531;29;20456;-85
2022/01/08 23:27:39;;;;;;;1.20;0.90;;;4.60;99.90;;;;;;4740482;29;20894;-84
2022/01/08 23:30:06;;;;;;;2.43;1.07;;;4.70;99.90;;;;;;4754858;29;20505;-84
2022/01/08 23:32:40;;;;;;;3.00;1.00;;;4.70;99.90;;;;;;4736437;29;20542;-84
2022/01/08 23:35:07;;;;;;;0.80;0.80;;;4.70;99.90;;;;;;4752110;29;20496;-83
2022/01/08 23:37:35;;;;;;;1.90;0.93;;;4.80;99.90;;;;;;4739049;29;20817;-84
2022/01/08 23:40:02;;;;;;;0.97;0.80;;;4.80;99.90;;;;;;4750676;29;20564;-85
2022/01/08 23:42:29;;;;;;;0.77;0.77;;;4.70;99.90;;;;;;4751905;29;20462;-84
2022/01/08 23:44:55;;;;;;;1.57;0.77;;;4.80;99.90;;;;;;4752615;29;20454;-84
2022/01/08 23:47:28;;;;;;;1.77;0.90;;;4.80;99.90;;;;;;4770353;29;20569;-85
2022/01/08 23:50:02;;;;;;;0.50;0.50;;;4.80;99.90;;;;;;4767213;29;21105;-84
2022/01/08 23:55:35;;;;;;;0.53;0.53;;;4.80;99.90;;;;;;4717394;29;21034;-84
2022/01/08 23:58:15;;;;;;;2.00;0.77;;;4.80;99.90;;;;;;4753727;29;20499;-84
